createdAt,value
2019-04-30T03:01:44.038Z,89.40
2019-04-30T03:04:12.404Z,89.50
2019-04-30T03:06:40.799Z,89.40
2019-04-30T03:09:10.329Z,88.50
2019-04-30T03:11:40.487Z,89.60
2019-04-30T03:14:10.384Z,88.60
2019-04-30T03:17:00.088Z,89.10
2019-04-30T03:19:35.477Z,89.00
2019-04-30T03:22:05.509Z,89.30
2019-04-30T03:24:33.918Z,88.60
2019-04-30T03:27:02.259Z,88.30
2019-04-30T03:29:30.616Z,88.80
2019-04-30T03:32:02.992Z,89.10
2019-04-30T03:34:32.728Z,88.80
2019-04-30T03:37:01.671Z,90.00
2019-04-30T03:39:31.664Z,90.00
2019-04-30T03:41:59.741Z,89.60
2019-04-30T03:44:31.660Z,89.30
2019-04-30T03:46:59.229Z,89.70
2019-04-30T03:49:29.855Z,89.90
2019-04-30T03:51:59.938Z,89.50
2019-04-30T03:54:29.309Z,88.60
2019-04-30T03:57:00.714Z,89.30
2019-04-30T03:59:30.102Z,89.50
2019-04-30T04:02:12.492Z,89.10
2019-04-30T04:04:52.979Z,89.10
2019-04-30T04:07:39.533Z,89.10
2019-04-30T04:10:12.557Z,89.20
2019-04-30T04:12:40.915Z,88.70
2019-04-30T04:15:10.430Z,89.40
2019-04-30T04:17:39.826Z,88.90
2019-04-30T04:20:10.630Z,89.90
2019-04-30T04:22:40.280Z,90.00
2019-04-30T04:25:12.781Z,90.00
2019-04-30T04:27:39.301Z,89.60
2019-04-30T04:30:10.357Z,90.00
2019-04-30T04:32:39.954Z,89.10
2019-04-30T04:35:12.211Z,89.70
2019-04-30T04:37:39.512Z,89.10
2019-04-30T04:40:09.326Z,89.20
2019-04-30T04:42:39.608Z,89.60
2019-04-30T04:45:09.898Z,90.10
2019-04-30T04:47:40.200Z,90.00
2019-04-30T04:50:10.263Z,90.00
2019-04-30T04:52:39.653Z,90.30
2019-04-30T04:55:10.063Z,90.50
2019-04-30T04:57:39.994Z,89.90
2019-04-30T05:00:10.591Z,89.40
2019-04-30T05:02:43.666Z,90.60
2019-04-30T05:05:12.055Z,90.40
2019-04-30T05:07:40.424Z,90.40
2019-04-30T05:10:09.307Z,90.60
2019-04-30T05:12:39.803Z,90.40
2019-04-30T05:15:09.538Z,90.50
2019-04-30T05:17:39.803Z,90.40
2019-04-30T05:20:10.060Z,90.80
2019-04-30T05:22:38.901Z,90.90
2019-04-30T05:25:08.817Z,90.60
2019-04-30T05:27:39.064Z,90.40
2019-04-30T05:30:09.726Z,90.40
2019-04-30T05:32:39.059Z,90.30
2019-04-30T05:35:09.379Z,90.30
2019-04-30T05:37:38.499Z,90.10
2019-04-30T05:40:09.157Z,90.20
2019-04-30T05:42:38.769Z,90.40
2019-04-30T05:45:09.362Z,90.50
2019-04-30T05:47:38.918Z,90.20
2019-04-30T05:50:08.909Z,90.00
2019-04-30T05:52:39.496Z,89.80
2019-04-30T05:55:08.579Z,89.20
2019-04-30T05:57:40.829Z,89.20
2019-04-30T06:00:09.361Z,89.60
2019-04-30T06:02:39.720Z,89.90
2019-04-30T06:05:08.786Z,89.20
2019-04-30T06:07:39.260Z,88.00
2019-04-30T06:10:14.859Z,88.00
2019-04-30T06:12:53.716Z,88.30
2019-04-30T06:15:42.003Z,87.90
2019-04-30T06:18:13.446Z,87.10
2019-04-30T06:20:40.478Z,87.70
2019-04-30T06:23:09.575Z,86.30
2019-04-30T06:25:55.548Z,87.20
2019-04-30T06:28:09.712Z,85.40
2019-04-30T06:30:39.626Z,84.10
2019-04-30T06:33:09.306Z,81.50
2019-04-30T06:35:39.147Z,82.50
2019-04-30T06:38:08.566Z,82.70
2019-04-30T06:40:39.003Z,82.40
2019-04-30T06:43:09.041Z,83.00
2019-04-30T06:45:38.828Z,82.40
2019-04-30T06:48:08.933Z,81.30
2019-04-30T06:50:39.350Z,81.60
2019-04-30T06:53:09.262Z,81.80
2019-04-30T06:55:39.158Z,80.10
2019-04-30T06:58:14.698Z,80.60
2019-04-30T07:00:40.028Z,80.30
2019-04-30T07:03:09.617Z,77.90
2019-04-30T07:05:38.948Z,79.20
2019-04-30T07:08:36.367Z,78.60
2019-04-30T07:11:13.858Z,76.70
2019-04-30T07:13:43.494Z,76.00
2019-04-30T07:16:11.877Z,75.70
2019-04-30T07:18:40.244Z,75.70
2019-04-30T07:21:08.797Z,75.50
2019-04-30T07:23:38.749Z,76.70
2019-04-30T07:26:08.962Z,75.20
2019-04-30T07:28:44.667Z,75.00
2019-04-30T07:33:39.466Z,75.70
2019-04-30T07:36:09.407Z,75.00
2019-04-30T07:38:44.285Z,76.10
2019-04-30T07:41:09.412Z,75.30
2019-04-30T07:43:39.331Z,75.70
2019-04-30T07:46:09.422Z,74.90
2019-04-30T07:48:39.967Z,75.90
2019-04-30T07:51:10.411Z,75.70
2019-04-30T07:53:40.185Z,76.50
2019-04-30T07:56:23.583Z,76.10
2019-04-30T07:58:39.085Z,76.40
2019-04-30T08:01:10.262Z,74.80
2019-04-30T08:03:58.988Z,74.40
2019-04-30T08:06:31.016Z,71.80
2019-04-30T08:09:00.812Z,70.40
2019-04-30T08:09:34.157Z,75.50
2019-04-30T08:11:29.306Z,71.60
2019-04-30T08:13:58.985Z,71.20
2019-04-30T08:16:28.745Z,71.60
2019-04-30T08:18:59.035Z,70.30
2019-04-30T08:21:28.822Z,71.40
2019-04-30T08:23:59.368Z,72.20
2019-04-30T08:26:28.668Z,72.60
2019-04-30T08:28:57.284Z,71.90
2019-04-30T08:31:25.676Z,70.30
2019-04-30T08:33:54.047Z,71.30
2019-04-30T08:36:22.439Z,68.90
2019-04-30T08:38:50.807Z,69.00
2019-04-30T08:41:19.457Z,69.80
2019-04-30T08:43:49.619Z,68.30
2019-04-30T08:46:19.038Z,69.10
2019-04-30T08:48:51.743Z,69.10
2019-04-30T08:51:19.073Z,67.30
2019-04-30T08:53:48.649Z,66.60
2019-04-30T08:56:17.207Z,68.80
2019-04-30T08:58:45.607Z,68.70
2019-04-30T09:01:13.967Z,68.20
2019-04-30T09:03:42.363Z,65.50
2019-04-30T09:06:12.374Z,67.50
2019-04-30T09:08:40.766Z,68.30
2019-04-30T09:11:21.802Z,65.90
2019-04-30T09:13:39.183Z,67.00
2019-04-30T09:16:09.303Z,66.60
2019-04-30T09:18:39.374Z,65.70
2019-04-30T09:21:09.010Z,65.70
2019-04-30T09:23:47.387Z,65.00
2019-04-30T09:26:08.690Z,65.60
2019-04-30T09:28:40.582Z,64.20
2019-04-30T09:31:08.725Z,64.70
2019-04-30T09:33:39.259Z,66.10
2019-04-30T09:36:09.194Z,65.40
2019-04-30T09:38:38.940Z,67.80
2019-04-30T09:41:09.150Z,67.00
2019-04-30T09:43:37.460Z,65.90
2019-04-30T09:46:15.437Z,65.80
2019-04-30T09:48:35.866Z,65.40
2019-04-30T09:51:04.482Z,64.50
2019-04-30T09:53:33.172Z,64.00
2019-04-30T09:56:01.497Z,63.60
2019-04-30T09:58:30.065Z,60.90
2019-04-30T10:00:59.353Z,65.40
2019-04-30T10:03:30.265Z,65.30
2019-04-30T10:05:59.081Z,61.90
2019-04-30T10:08:30.326Z,66.40
2019-04-30T10:10:59.342Z,64.20
2019-04-30T10:13:27.710Z,65.30
2019-04-30T10:15:58.558Z,65.40
2019-04-30T10:18:27.013Z,65.00
2019-04-30T10:20:55.406Z,66.60
2019-04-30T10:23:23.771Z,65.00
2019-04-30T10:25:52.173Z,62.30
2019-04-30T10:28:20.571Z,65.10
2019-04-30T10:30:48.955Z,62.00
2019-04-30T10:33:17.321Z,60.80
2019-04-30T10:35:45.719Z,63.20
2019-04-30T10:38:14.087Z,65.10
2019-04-30T10:40:42.479Z,64.90
2019-04-30T10:43:10.863Z,66.20
2019-04-30T10:45:39.234Z,63.50
2019-04-30T10:48:07.674Z,65.60
2019-04-30T10:50:36.058Z,64.50
2019-04-30T10:53:04.606Z,65.30
2019-04-30T10:55:33.011Z,64.10
2019-04-30T10:58:01.379Z,64.10
2019-04-30T11:00:38.928Z,62.30
2019-04-30T11:03:17.221Z,65.80
2019-04-30T11:05:40.684Z,63.80
2019-04-30T11:08:07.721Z,65.70
2019-04-30T11:10:36.106Z,66.80
2019-04-30T11:13:04.559Z,64.10
2019-04-30T11:15:32.931Z,66.40
2019-04-30T11:18:01.510Z,64.40
2019-04-30T11:20:30.183Z,64.10
2019-04-30T11:22:58.885Z,66.20
2019-04-30T11:25:28.699Z,66.30
2019-04-30T11:27:57.941Z,64.30
2019-04-30T11:30:26.919Z,65.00
2019-04-30T11:32:56.900Z,62.80
2019-04-30T11:35:25.447Z,62.50
2019-04-30T11:37:53.836Z,65.00
2019-04-30T11:40:34.537Z,64.80
2019-04-30T11:42:59.930Z,63.60
2019-04-30T11:45:54.195Z,64.50
2019-04-30T11:48:22.587Z,64.60
2019-04-30T11:50:50.967Z,62.30
2019-04-30T11:53:25.458Z,60.70
2019-04-30T11:55:49.366Z,59.60
2019-04-30T11:58:21.683Z,60.60
2019-04-30T12:00:49.479Z,59.70
2019-04-30T12:03:19.205Z,62.30
2019-04-30T12:05:49.087Z,58.70
2019-04-30T12:08:22.072Z,58.20
2019-04-30T12:10:52.081Z,60.60
2019-04-30T12:13:27.992Z,55.60
2019-04-30T12:15:56.361Z,58.70
2019-04-30T12:18:24.751Z,57.70
2019-04-30T12:20:53.115Z,61.10
2019-04-30T12:23:21.504Z,56.90
2019-04-30T12:25:49.857Z,62.30
2019-04-30T12:28:19.563Z,60.00
2019-04-30T12:30:48.975Z,55.10
2019-04-30T12:33:19.161Z,54.40
2019-04-30T12:35:49.196Z,57.40
2019-04-30T12:38:19.132Z,55.60
2019-04-30T12:40:47.767Z,58.60
2019-04-30T12:43:16.126Z,58.20
2019-04-30T12:45:44.518Z,57.50
2019-04-30T12:48:20.795Z,58.20
2019-04-30T12:51:02.843Z,56.20
2019-04-30T12:53:38.911Z,53.90
2019-04-30T12:56:27.062Z,56.50
2019-04-30T12:58:54.234Z,57.80
2019-04-30T13:01:22.627Z,58.10
2019-04-30T13:03:58.624Z,56.60
2019-04-30T13:06:21.284Z,58.80
2019-04-30T13:08:52.377Z,58.30
2019-04-30T13:11:20.980Z,58.90
2019-04-30T13:13:50.886Z,59.70
2019-04-30T13:16:19.744Z,54.90
2019-04-30T13:18:49.417Z,55.60
2019-04-30T13:21:18.506Z,55.30
2019-04-30T13:23:46.949Z,55.60
2019-04-30T13:26:15.331Z,54.60
2019-04-30T13:28:54.119Z,57.00
2019-04-30T13:31:22.514Z,53.60
2019-04-30T13:33:53.306Z,49.70
2019-04-30T13:36:22.215Z,56.10
2019-04-30T13:38:55.194Z,54.60
2019-04-30T13:41:31.058Z,55.50
2019-04-30T13:44:00.697Z,58.90
2019-04-30T13:46:29.093Z,58.50
2019-04-30T13:48:57.451Z,59.10
2019-04-30T13:51:25.839Z,59.20
2019-04-30T13:53:54.203Z,60.10
2019-04-30T13:56:22.586Z,55.90
2019-04-30T13:58:50.957Z,58.40
2019-04-30T14:01:21.408Z,57.80
2019-04-30T14:03:53.894Z,55.50
2019-04-30T14:06:23.918Z,55.70
2019-04-30T14:08:56.773Z,55.30
2019-04-30T14:11:25.202Z,57.10
2019-04-30T14:13:53.572Z,55.20
2019-04-30T14:16:22.303Z,56.10
2019-04-30T14:18:50.687Z,55.60
2019-04-30T14:21:20.535Z,56.50
2019-04-30T14:23:49.504Z,58.40
2019-04-30T14:26:19.379Z,57.40
2019-04-30T14:28:48.972Z,55.90
2019-04-30T14:31:18.704Z,55.20
2019-04-30T14:33:47.458Z,54.00
2019-04-30T14:36:15.824Z,55.30
2019-04-30T14:38:44.213Z,55.20
2019-04-30T14:41:13.201Z,55.90
2019-04-30T14:43:46.817Z,51.20
2019-04-30T14:46:44.796Z,52.70
2019-04-30T14:49:16.370Z,54.00
2019-04-30T14:51:45.099Z,51.30
2019-04-30T14:54:15.129Z,52.00
2019-04-30T14:56:49.397Z,51.60
2019-04-30T14:59:22.497Z,51.00
2019-04-30T15:01:55.612Z,51.50
2019-04-30T15:04:23.990Z,53.20
2019-04-30T15:06:52.352Z,51.90
2019-04-30T15:09:20.811Z,53.20
2019-04-30T15:11:49.165Z,51.50
2019-04-30T15:14:17.549Z,48.40
2019-04-30T15:16:45.918Z,40.40
2019-04-30T15:19:14.307Z,44.00
2019-04-30T15:21:42.712Z,41.20
2019-04-30T15:24:21.702Z,40.20
2019-04-30T15:26:57.686Z,34.90
2019-04-30T15:29:20.099Z,35.00
2019-04-30T15:31:48.463Z,35.80
2019-04-30T15:34:16.851Z,38.60
2019-04-30T15:36:45.220Z,35.10
2019-04-30T15:39:18.369Z,29.90
2019-04-30T15:41:46.813Z,32.00
2019-04-30T15:44:15.203Z,29.30
2019-04-30T15:46:43.567Z,32.20
2019-04-30T15:49:11.967Z,28.60
2019-04-30T15:51:40.323Z,37.20
2019-04-30T15:54:08.711Z,34.40
2019-04-30T15:56:40.289Z,26.50
2019-04-30T15:59:14.680Z,32.00
2019-04-30T16:01:50.479Z,30.20
2019-04-30T16:04:21.591Z,28.30
2019-04-30T16:06:49.972Z,29.00
2019-04-30T16:09:26.020Z,29.90
2019-04-30T16:12:07.890Z,27.20
2019-04-30T16:14:38.003Z,29.10
2019-04-30T16:17:08.016Z,32.90
2019-04-30T16:19:36.391Z,33.40
2019-04-30T16:22:04.853Z,31.70
2019-04-30T16:24:33.232Z,29.80
2019-04-30T16:27:01.618Z,32.40
2019-04-30T16:29:29.991Z,32.30
2019-04-30T16:31:59.160Z,28.90
2019-04-30T16:34:30.137Z,35.00
2019-04-30T16:36:59.043Z,32.90
2019-04-30T16:39:28.791Z,38.20
2019-04-30T16:41:59.140Z,33.50
2019-04-30T16:44:27.311Z,37.50
2019-04-30T16:46:55.678Z,35.30
2019-04-30T16:49:24.052Z,34.30
2019-04-30T16:51:52.442Z,34.50
2019-04-30T16:54:20.811Z,39.40
2019-04-30T16:57:02.706Z,37.90
2019-04-30T16:59:20.863Z,37.10
2019-04-30T17:01:57.118Z,38.90
2019-04-30T17:04:23.629Z,35.00
2019-04-30T17:06:53.665Z,35.20
2019-04-30T17:09:29.567Z,38.90
2019-04-30T17:12:02.538Z,32.30
2019-04-30T17:14:32.547Z,40.30
2019-04-30T17:17:00.950Z,39.20
2019-04-30T17:19:29.379Z,40.40
2019-04-30T17:21:57.703Z,38.70
2019-04-30T17:24:26.062Z,43.10
2019-04-30T17:26:54.426Z,43.00
2019-04-30T17:29:22.823Z,43.20
2019-04-30T17:31:51.191Z,44.10
2019-04-30T17:34:19.582Z,44.40
2019-04-30T17:36:49.597Z,44.30
2019-04-30T17:39:19.192Z,45.50
2019-04-30T17:41:47.925Z,45.60
2019-04-30T17:44:16.307Z,46.40
2019-04-30T17:46:44.840Z,47.20
2019-04-30T17:49:13.229Z,47.00
2019-04-30T17:51:41.600Z,48.00
2019-04-30T17:54:11.641Z,47.60
2019-04-30T17:56:40.273Z,48.30
2019-04-30T17:59:08.658Z,48.30
2019-04-30T18:01:39.960Z,48.70
2019-04-30T18:04:08.783Z,48.80
2019-04-30T18:06:37.202Z,49.30
2019-04-30T18:09:10.764Z,49.30
2019-04-30T18:11:39.628Z,51.30
2019-04-30T18:14:08.814Z,52.00
2019-04-30T18:16:38.644Z,51.80
2019-04-30T18:19:24.982Z,52.00
2019-04-30T18:21:55.004Z,51.90
2019-04-30T18:24:25.025Z,52.70
2019-04-30T18:26:55.036Z,52.80
2019-04-30T18:29:23.419Z,54.00
2019-04-30T18:31:51.783Z,53.20
2019-04-30T18:34:20.167Z,54.60
2019-04-30T18:36:48.693Z,55.00
2019-04-30T18:39:18.928Z,55.40
2019-04-30T18:41:47.243Z,55.00
2019-04-30T18:44:15.631Z,55.60
2019-04-30T18:46:44.003Z,55.00
2019-04-30T18:49:12.407Z,55.40
2019-04-30T18:51:42.693Z,56.20
2019-04-30T18:54:10.820Z,57.60
2019-04-30T18:56:39.190Z,57.30
2019-04-30T18:59:08.780Z,58.00
2019-04-30T19:01:37.416Z,59.80
2019-04-30T19:04:05.783Z,60.30
2019-04-30T19:06:34.188Z,61.40
2019-04-30T19:09:20.450Z,63.70
2019-04-30T19:11:53.682Z,63.90
2019-04-30T19:14:23.725Z,64.70
2019-04-30T19:17:10.332Z,64.50
2019-04-30T19:19:40.407Z,68.30
2019-04-30T19:22:09.180Z,66.90
2019-04-30T19:24:37.643Z,70.50
2019-04-30T19:27:06.278Z,71.10
2019-04-30T19:29:34.643Z,69.10
2019-04-30T19:32:03.032Z,68.10
2019-04-30T19:34:31.704Z,69.90
2019-04-30T19:37:00.104Z,70.60
2019-04-30T19:39:29.301Z,71.30
2019-04-30T19:41:58.741Z,70.00
2019-04-30T19:44:29.313Z,72.20
2019-04-30T19:46:58.557Z,72.60
2019-04-30T19:49:26.994Z,72.50
2019-04-30T19:52:07.615Z,74.40
2019-04-30T19:54:25.392Z,74.00
2019-04-30T19:56:53.793Z,76.70
2019-04-30T19:59:22.159Z,73.90
2019-04-30T20:01:50.550Z,76.20
2019-04-30T20:04:18.922Z,76.20
2019-04-30T20:06:48.765Z,75.90
2019-04-30T20:09:19.284Z,77.50
2019-04-30T20:11:49.208Z,75.80
2019-04-30T20:14:18.666Z,75.60
2019-04-30T20:16:48.648Z,77.40
2019-04-30T20:19:17.173Z,76.90
2019-04-30T20:21:50.797Z,77.80
2019-04-30T20:24:15.655Z,78.00
2019-04-30T20:26:44.043Z,77.40
2019-04-30T20:29:13.337Z,77.30
2019-04-30T20:31:41.768Z,78.30
2019-04-30T20:34:10.258Z,77.40
2019-04-30T20:36:38.964Z,78.60
2019-04-30T20:39:09.240Z,80.10
2019-04-30T20:41:39.527Z,79.10
2019-04-30T20:44:08.722Z,79.00
2019-04-30T20:46:39.316Z,80.30
2019-04-30T20:49:09.145Z,78.80
2019-04-30T20:51:40.179Z,80.30
2019-04-30T20:54:09.105Z,79.90
2019-04-30T20:56:38.977Z,80.90
2019-04-30T20:59:10.494Z,78.60
2019-04-30T21:01:39.210Z,80.50
2019-04-30T21:04:07.547Z,79.80
2019-04-30T21:06:35.980Z,79.60
2019-04-30T21:09:05.585Z,78.30
2019-04-30T21:11:34.026Z,78.30
2019-04-30T21:14:02.420Z,80.20
2019-04-30T21:16:30.773Z,81.60
2019-04-30T21:18:59.168Z,81.70
2019-04-30T21:21:28.733Z,79.40
2019-04-30T21:23:57.401Z,80.30
2019-04-30T21:26:25.763Z,80.40
2019-04-30T21:28:56.890Z,80.60
2019-04-30T21:31:28.916Z,80.40
2019-04-30T21:34:09.444Z,80.80
2019-04-30T21:36:39.559Z,79.70
2019-04-30T21:39:09.025Z,79.90
2019-04-30T21:41:39.445Z,81.60
2019-04-30T21:44:07.582Z,81.10
2019-04-30T21:46:37.605Z,80.60
2019-04-30T21:49:05.988Z,80.40
2019-04-30T21:51:34.357Z,79.20
2019-04-30T21:54:02.743Z,78.10
2019-04-30T21:56:31.106Z,78.50
2019-04-30T21:58:59.569Z,79.60
2019-04-30T22:01:28.291Z,80.60
2019-04-30T22:03:56.623Z,81.60
2019-04-30T22:06:24.978Z,80.90
2019-04-30T22:08:53.370Z,81.70
2019-04-30T22:11:21.740Z,80.70
2019-04-30T22:13:50.125Z,81.30
2019-04-30T22:16:20.318Z,78.30
2019-04-30T22:18:48.897Z,81.70
2019-04-30T22:21:17.185Z,81.10
2019-04-30T22:23:45.481Z,82.90
2019-04-30T22:26:13.865Z,83.70
2019-04-30T22:28:42.160Z,83.00
2019-04-30T22:31:10.546Z,81.70
2019-04-30T22:33:39.301Z,79.60
2019-04-30T22:36:24.751Z,81.60
2019-04-30T22:38:54.785Z,82.00
2019-04-30T22:41:29.623Z,82.40
2019-04-30T22:43:57.817Z,81.20
2019-04-30T22:46:26.220Z,79.30
2019-04-30T22:48:54.596Z,81.80
2019-04-30T22:51:22.995Z,82.20
2019-04-30T22:53:51.370Z,81.90
2019-04-30T22:56:19.759Z,82.40
2019-04-30T22:58:48.118Z,81.60
2019-04-30T23:01:23.650Z,82.50
2019-04-30T23:03:53.663Z,82.10
2019-04-30T23:06:22.076Z,82.10
2019-04-30T23:08:50.430Z,82.70
2019-04-30T23:11:18.831Z,82.00
2019-04-30T23:13:47.191Z,82.60
2019-04-30T23:16:15.590Z,82.30
2019-04-30T23:18:43.950Z,80.20
2019-04-30T23:21:12.343Z,81.50
2019-04-30T23:23:40.717Z,82.90
2019-04-30T23:26:09.108Z,82.90
2019-04-30T23:28:37.478Z,79.80
2019-04-30T23:31:05.870Z,83.30
2019-04-30T23:33:34.231Z,84.20
2019-04-30T23:36:02.638Z,84.00
2019-04-30T23:38:30.993Z,82.50
2019-04-30T23:40:59.350Z,80.10
2019-04-30T23:43:27.733Z,80.40
2019-04-30T23:45:56.089Z,82.90
2019-04-30T23:48:24.482Z,83.20
2019-04-30T23:50:52.851Z,82.40
2019-04-30T23:53:21.303Z,81.90
2019-04-30T23:55:49.676Z,82.90
2019-04-30T23:58:18.066Z,81.60
